This is the latest recevied weather packets stored in our database for station/object K7LDN-13. If no packets are shown the sender has not sent any weather packets the latest 10 day(s).
| Time | Temp. | Humidity | Pressure | Rain* | Wind** | Luminosity | Snow |
|---|---|---|---|---|---|---|---|
| 1777919529 | 22.22° C | 30% | 1011.5 hPa | 0 mm | - | 966 W/m² | - |
| 1777919227 | 22.22° C | 29% | 1011.8 hPa | 0 mm | - | 895 W/m² | - |
| 1777918924 | 21.67° C | 29% | 1011.7 hPa | 0 mm | - | 914 W/m² | - |
| 1777918621 | 21.67° C | 30% | 1011.8 hPa | 0 mm | - | 803 W/m² | - |
| 1777918319 | 21.67° C | 30% | 1011.8 hPa | 0 mm | - | 984 W/m² | - |
| 1777918017 | 22.22° C | 29% | 1012 hPa | 0 mm | - | 503 W/m² | - |
| 1777917716 | 21.67° C | 31% | 1012 hPa | 0 mm | - | 954 W/m² | - |
| 1777917413 | 21.67° C | 31% | 1012.2 hPa | 0 mm | - | 899 W/m² | - |
| 1777917109 | 21.67° C | 30% | 1012.2 hPa | 0 mm | - | 672 W/m² | - |
| 1777916807 | 21.11° C | 31% | 1012 hPa | 0 mm | - | 958 W/m² | - |
| 1777916504 | 21.67° C | 31% | 1012.5 hPa | 0 mm | - | 903 W/m² | - |
| 1777916201 | 21.11° C | 33% | 1012.3 hPa | 0 mm | - | 839 W/m² | - |
| 1777915898 | 21.11° C | 31% | 1012.3 hPa | 0 mm | - | 809 W/m² | - |
| 1777915595 | 20.56° C | 32% | 1012.4 hPa | 0 mm | - | 792 W/m² | - |
| 1777915291 | 20.56° C | 32% | 1012.3 hPa | 0 mm | - | 779 W/m² | - |
| 1777914988 | 20.56° C | 33% | 1012.4 hPa | 0 mm | - | 766 W/m² | - |
| 1777914685 | 20.56° C | 33% | 1012.4 hPa | 0 mm | - | 752 W/m² | - |
| 1777914381 | 20° C | 34% | 1012.7 hPa | 0 mm | - | 741 W/m² | - |
| 1777914079 | 20.56° C | 32% | 1012.6 hPa | 0 mm | - | 68 W/m² | - |
| 1777913775 | 20° C | 32% | 1012.5 hPa | 0 mm | - | 709 W/m² | - |
| 1777913471 | 20° C | 33% | 1012.6 hPa | 0 mm | - | 702 W/m² | - |
| 1777913168 | 20° C | 34% | 1012.6 hPa | 0 mm | - | 690 W/m² | - |
| 1777912864 | 20° C | 34% | 1012.7 hPa | 0 mm | - | 679 W/m² | - |
| 1777912561 | 19.44° C | 35% | 1012.7 hPa | 0 mm | - | 667 W/m² | - |
| 1777912257 | 19.44° C | 34% | 1012.7 hPa | 0 mm | - | 650 W/m² | - |
* Rain latest hour (hover to see other rain measurements)
** Current wind speed in m/s (hover to see current wind gust speed)